sensor_id;sensor_type;location;lat;lon;timestamp;P1;durP1;ratioP1;P2;durP2;ratioP2
32393;SDS011;18853;45.426;9.206;2023-11-19T00:00:26;34.50;;;24.50;;
32393;SDS011;18853;45.426;9.206;2023-11-19T00:02:52;30.95;;;24.50;;
32393;SDS011;18853;45.426;9.206;2023-11-19T00:05:18;30.08;;;23.00;;
32393;SDS011;18853;45.426;9.206;2023-11-19T00:07:43;28.73;;;22.88;;
32393;SDS011;18853;45.426;9.206;2023-11-19T00:12:39;29.55;;;22.92;;
32393;SDS011;18853;45.426;9.206;2023-11-19T00:15:06;28.63;;;22.42;;
32393;SDS011;18853;45.426;9.206;2023-11-19T00:17:36;32.08;;;20.90;;
32393;SDS011;18853;45.426;9.206;2023-11-19T00:20:06;31.65;;;21.80;;
32393;SDS011;18853;45.426;9.206;2023-11-19T00:22:32;31.75;;;20.95;;
32393;SDS011;18853;45.426;9.206;2023-11-19T00:24:58;26.48;;;18.80;;
32393;SDS011;18853;45.426;9.206;2023-11-19T00:27:24;24.92;;;18.98;;
32393;SDS011;18853;45.426;9.206;2023-11-19T00:29:50;27.20;;;19.25;;
32393;SDS011;18853;45.426;9.206;2023-11-19T00:32:16;25.90;;;18.92;;
32393;SDS011;18853;45.426;9.206;2023-11-19T00:34:43;27.60;;;18.40;;
32393;SDS011;18853;45.426;9.206;2023-11-19T00:37:09;29.52;;;17.85;;
32393;SDS011;18853;45.426;9.206;2023-11-19T00:39:35;24.23;;;17.20;;
32393;SDS011;18853;45.426;9.206;2023-11-19T00:42:01;26.50;;;17.73;;
32393;SDS011;18853;45.426;9.206;2023-11-19T00:44:26;24.98;;;17.38;;
32393;SDS011;18853;45.426;9.206;2023-11-19T00:46:52;27.95;;;18.70;;
32393;SDS011;18853;45.426;9.206;2023-11-19T00:49:17;26.33;;;18.52;;
32393;SDS011;18853;45.426;9.206;2023-11-19T00:51:43;24.48;;;17.10;;
32393;SDS011;18853;45.426;9.206;2023-11-19T00:54:10;21.10;;;16.27;;
32393;SDS011;18853;45.426;9.206;2023-11-19T00:56:36;26.05;;;18.20;;
32393;SDS011;18853;45.426;9.206;2023-11-19T00:59:02;23.85;;;16.52;;
32393;SDS011;18853;45.426;9.206;2023-11-19T01:01:28;25.77;;;16.60;;
32393;SDS011;18853;45.426;9.206;2023-11-19T01:03:54;21.13;;;14.88;;
32393;SDS011;18853;45.426;9.206;2023-11-19T01:06:28;22.27;;;16.40;;
32393;SDS011;18853;45.426;9.206;2023-11-19T01:08:55;27.30;;;16.00;;
32393;SDS011;18853;45.426;9.206;2023-11-19T01:11:22;26.30;;;17.05;;
32393;SDS011;18853;45.426;9.206;2023-11-19T01:13:48;21.98;;;16.00;;
32393;SDS011;18853;45.426;9.206;2023-11-19T01:16:14;25.55;;;15.68;;
32393;SDS011;18853;45.426;9.206;2023-11-19T01:18:40;20.98;;;16.48;;
32393;SDS011;18853;45.426;9.206;2023-11-19T01:21:06;28.38;;;17.08;;
32393;SDS011;18853;45.426;9.206;2023-11-19T01:23:32;21.25;;;16.60;;
32393;SDS011;18853;45.426;9.206;2023-11-19T01:25:57;22.25;;;15.80;;
32393;SDS011;18853;45.426;9.206;2023-11-19T01:28:23;22.25;;;16.98;;
32393;SDS011;18853;45.426;9.206;2023-11-19T01:30:52;24.05;;;16.60;;
32393;SDS011;18853;45.426;9.206;2023-11-19T01:33:18;21.48;;;16.08;;
32393;SDS011;18853;45.426;9.206;2023-11-19T01:35:44;21.95;;;16.23;;
32393;SDS011;18853;45.426;9.206;2023-11-19T01:38:09;23.88;;;16.83;;
32393;SDS011;18853;45.426;9.206;2023-11-19T01:40:35;21.38;;;15.52;;
32393;SDS011;18853;45.426;9.206;2023-11-19T01:43:01;22.90;;;16.02;;
32393;SDS011;18853;45.426;9.206;2023-11-19T01:45:28;22.08;;;15.70;;
32393;SDS011;18853;45.426;9.206;2023-11-19T01:47:55;20.88;;;15.68;;
32393;SDS011;18853;45.426;9.206;2023-11-19T01:50:22;25.90;;;15.77;;
32393;SDS011;18853;45.426;9.206;2023-11-19T01:52:50;20.08;;;16.15;;
32393;SDS011;18853;45.426;9.206;2023-11-19T01:55:20;25.77;;;17.13;;
32393;SDS011;18853;45.426;9.206;2023-11-19T01:57:47;22.77;;;16.20;;
32393;SDS011;18853;45.426;9.206;2023-11-19T02:00:14;24.40;;;15.98;;
32393;SDS011;18853;45.426;9.206;2023-11-19T02:02:41;25.02;;;16.58;;
32393;SDS011;18853;45.426;9.206;2023-11-19T02:05:08;26.15;;;16.63;;
32393;SDS011;18853;45.426;9.206;2023-11-19T02:07:35;22.27;;;16.65;;
32393;SDS011;18853;45.426;9.206;2023-11-19T02:10:01;22.40;;;16.98;;
32393;SDS011;18853;45.426;9.206;2023-11-19T02:12:27;22.92;;;16.08;;
32393;SDS011;18853;45.426;9.206;2023-11-19T02:14:58;23.40;;;16.08;;
32393;SDS011;18853;45.426;9.206;2023-11-19T02:17:28;22.80;;;16.33;;
32393;SDS011;18853;45.426;9.206;2023-11-19T02:19:56;23.65;;;16.00;;
32393;SDS011;18853;45.426;9.206;2023-11-19T02:22:22;22.33;;;16.08;;
32393;SDS011;18853;45.426;9.206;2023-11-19T02:24:48;20.88;;;15.05;;
32393;SDS011;18853;45.426;9.206;2023-11-19T02:27:51;20.13;;;15.43;;
32393;SDS011;18853;45.426;9.206;2023-11-19T02:30:13;21.98;;;15.82;;
32393;SDS011;18853;45.426;9.206;2023-11-19T02:32:40;23.50;;;15.60;;
32393;SDS011;18853;45.426;9.206;2023-11-19T02:35:07;23.52;;;15.82;;
32393;SDS011;18853;45.426;9.206;2023-11-19T02:37:33;23.70;;;16.17;;
32393;SDS011;18853;45.426;9.206;2023-11-19T02:39:59;21.25;;;15.32;;
32393;SDS011;18853;45.426;9.206;2023-11-19T02:42:29;23.00;;;16.20;;
32393;SDS011;18853;45.426;9.206;2023-11-19T02:44:55;23.65;;;15.63;;
32393;SDS011;18853;45.426;9.206;2023-11-19T02:47:20;21.52;;;15.38;;
32393;SDS011;18853;45.426;9.206;2023-11-19T02:49:48;22.63;;;15.77;;
32393;SDS011;18853;45.426;9.206;2023-11-19T02:52:14;23.15;;;16.02;;
32393;SDS011;18853;45.426;9.206;2023-11-19T02:54:40;21.67;;;15.32;;
32393;SDS011;18853;45.426;9.206;2023-11-19T02:57:07;22.92;;;16.33;;
32393;SDS011;18853;45.426;9.206;2023-11-19T02:59:35;20.52;;;15.18;;
32393;SDS011;18853;45.426;9.206;2023-11-19T03:02:07;21.65;;;15.27;;
32393;SDS011;18853;45.426;9.206;2023-11-19T03:04:36;21.27;;;15.68;;
32393;SDS011;18853;45.426;9.206;2023-11-19T03:07:07;22.35;;;16.52;;
32393;SDS011;18853;45.426;9.206;2023-11-19T03:09:33;21.10;;;15.65;;
32393;SDS011;18853;45.426;9.206;2023-11-19T03:12:00;23.25;;;15.80;;
32393;SDS011;18853;45.426;9.206;2023-11-19T03:14:26;20.42;;;15.30;;
32393;SDS011;18853;45.426;9.206;2023-11-19T03:16:52;22.42;;;15.27;;
32393;SDS011;18853;45.426;9.206;2023-11-19T03:19:18;23.88;;;15.15;;
32393;SDS011;18853;45.426;9.206;2023-11-19T03:21:43;19.80;;;14.80;;
32393;SDS011;18853;45.426;9.206;2023-11-19T03:24:09;21.63;;;16.08;;
32393;SDS011;18853;45.426;9.206;2023-11-19T03:26:37;22.88;;;15.48;;
32393;SDS011;18853;45.426;9.206;2023-11-19T03:29:03;21.38;;;15.38;;
32393;SDS011;18853;45.426;9.206;2023-11-19T03:31:29;21.52;;;15.43;;
32393;SDS011;18853;45.426;9.206;2023-11-19T03:33:54;24.38;;;16.08;;
32393;SDS011;18853;45.426;9.206;2023-11-19T03:36:20;23.40;;;15.55;;
32393;SDS011;18853;45.426;9.206;2023-11-19T03:38:45;26.13;;;15.85;;
32393;SDS011;18853;45.426;9.206;2023-11-19T03:41:14;24.73;;;15.05;;
32393;SDS011;18853;45.426;9.206;2023-11-19T03:43:42;21.65;;;15.68;;
32393;SDS011;18853;45.426;9.206;2023-11-19T03:46:19;25.65;;;15.48;;
32393;SDS011;18853;45.426;9.206;2023-11-19T03:48:46;20.63;;;15.73;;
32393;SDS011;18853;45.426;9.206;2023-11-19T03:51:12;20.92;;;14.60;;
32393;SDS011;18853;45.426;9.206;2023-11-19T03:53:47;20.58;;;15.13;;
32393;SDS011;18853;45.426;9.206;2023-11-19T03:56:12;21.52;;;15.30;;
32393;SDS011;18853;45.426;9.206;2023-11-19T03:58:38;21.90;;;14.85;;
32393;SDS011;18853;45.426;9.206;2023-11-19T04:01:04;21.10;;;15.13;;
32393;SDS011;18853;45.426;9.206;2023-11-19T04:03:30;21.52;;;15.25;;
32393;SDS011;18853;45.426;9.206;2023-11-19T04:05:56;24.35;;;15.70;;
32393;SDS011;18853;45.426;9.206;2023-11-19T04:08:22;20.17;;;15.35;;
32393;SDS011;18853;45.426;9.206;2023-11-19T04:10:48;21.05;;;15.45;;
32393;SDS011;18853;45.426;9.206;2023-11-19T04:13:14;23.88;;;15.40;;
32393;SDS011;18853;45.426;9.206;2023-11-19T04:15:40;22.77;;;15.13;;
32393;SDS011;18853;45.426;9.206;2023-11-19T04:18:06;23.80;;;16.05;;
32393;SDS011;18853;45.426;9.206;2023-11-19T04:20:32;22.60;;;16.17;;
32393;SDS011;18853;45.426;9.206;2023-11-19T04:22:57;20.85;;;15.45;;
32393;SDS011;18853;45.426;9.206;2023-11-19T04:25:25;19.25;;;14.75;;
32393;SDS011;18853;45.426;9.206;2023-11-19T04:27:51;21.77;;;15.93;;
32393;SDS011;18853;45.426;9.206;2023-11-19T04:30:17;21.88;;;15.57;;
32393;SDS011;18853;45.426;9.206;2023-11-19T04:32:46;23.52;;;15.57;;
32393;SDS011;18853;45.426;9.206;2023-11-19T04:35:13;22.23;;;15.10;;
32393;SDS011;18853;45.426;9.206;2023-11-19T04:37:39;18.23;;;15.27;;
32393;SDS011;18853;45.426;9.206;2023-11-19T04:40:06;20.08;;;14.88;;
32393;SDS011;18853;45.426;9.206;2023-11-19T04:42:32;19.90;;;15.25;;
32393;SDS011;18853;45.426;9.206;2023-11-19T04:44:58;24.85;;;16.42;;
32393;SDS011;18853;45.426;9.206;2023-11-19T04:47:23;20.55;;;15.07;;
32393;SDS011;18853;45.426;9.206;2023-11-19T04:49:49;20.92;;;15.32;;
32393;SDS011;18853;45.426;9.206;2023-11-19T04:52:15;18.17;;;14.55;;
32393;SDS011;18853;45.426;9.206;2023-11-19T04:54:41;19.75;;;15.15;;
32393;SDS011;18853;45.426;9.206;2023-11-19T04:57:07;24.08;;;15.88;;
32393;SDS011;18853;45.426;9.206;2023-11-19T04:59:35;23.60;;;15.95;;
32393;SDS011;18853;45.426;9.206;2023-11-19T05:02:01;21.17;;;14.95;;
32393;SDS011;18853;45.426;9.206;2023-11-19T05:04:27;18.80;;;14.70;;
32393;SDS011;18853;45.426;9.206;2023-11-19T05:06:52;20.85;;;15.38;;
32393;SDS011;18853;45.426;9.206;2023-11-19T05:09:18;22.48;;;15.00;;
32393;SDS011;18853;45.426;9.206;2023-11-19T05:11:44;20.90;;;15.48;;
32393;SDS011;18853;45.426;9.206;2023-11-19T05:14:09;21.00;;;15.27;;
32393;SDS011;18853;45.426;9.206;2023-11-19T05:16:35;21.95;;;15.98;;
32393;SDS011;18853;45.426;9.206;2023-11-19T05:19:00;19.65;;;15.15;;
32393;SDS011;18853;45.426;9.206;2023-11-19T05:21:26;22.02;;;14.95;;
32393;SDS011;18853;45.426;9.206;2023-11-19T05:23:52;22.15;;;15.57;;
32393;SDS011;18853;45.426;9.206;2023-11-19T05:26:21;22.88;;;16.17;;
32393;SDS011;18853;45.426;9.206;2023-11-19T05:28:47;21.45;;;15.68;;
32393;SDS011;18853;45.426;9.206;2023-11-19T05:31:13;24.20;;;16.98;;
32393;SDS011;18853;45.426;9.206;2023-11-19T05:33:39;22.70;;;16.90;;
32393;SDS011;18853;45.426;9.206;2023-11-19T05:36:05;20.75;;;15.75;;
32393;SDS011;18853;45.426;9.206;2023-11-19T05:38:33;22.75;;;17.02;;
32393;SDS011;18853;45.426;9.206;2023-11-19T05:40:59;22.58;;;16.17;;
32393;SDS011;18853;45.426;9.206;2023-11-19T05:43:24;22.50;;;15.88;;
32393;SDS011;18853;45.426;9.206;2023-11-19T05:45:50;24.08;;;17.25;;
32393;SDS011;18853;45.426;9.206;2023-11-19T05:48:16;24.65;;;16.60;;
32393;SDS011;18853;45.426;9.206;2023-11-19T05:50:42;23.92;;;16.42;;
32393;SDS011;18853;45.426;9.206;2023-11-19T05:53:07;27.00;;;17.33;;
32393;SDS011;18853;45.426;9.206;2023-11-19T05:55:38;24.52;;;16.95;;
32393;SDS011;18853;45.426;9.206;2023-11-19T05:58:11;23.85;;;16.70;;
32393;SDS011;18853;45.426;9.206;2023-11-19T06:00:37;25.90;;;17.48;;
32393;SDS011;18853;45.426;9.206;2023-11-19T06:03:05;27.38;;;17.67;;
32393;SDS011;18853;45.426;9.206;2023-11-19T06:05:31;23.40;;;16.88;;
32393;SDS011;18853;45.426;9.206;2023-11-19T06:07:57;22.98;;;17.35;;
32393;SDS011;18853;45.426;9.206;2023-11-19T06:10:23;24.83;;;16.98;;
32393;SDS011;18853;45.426;9.206;2023-11-19T06:12:54;23.38;;;17.05;;
32393;SDS011;18853;45.426;9.206;2023-11-19T06:15:22;26.77;;;17.50;;
32393;SDS011;18853;45.426;9.206;2023-11-19T06:17:48;27.88;;;17.15;;
32393;SDS011;18853;45.426;9.206;2023-11-19T06:20:13;24.00;;;17.33;;
32393;SDS011;18853;45.426;9.206;2023-11-19T06:22:39;23.45;;;17.45;;
32393;SDS011;18853;45.426;9.206;2023-11-19T06:25:08;24.75;;;17.08;;
32393;SDS011;18853;45.426;9.206;2023-11-19T06:27:34;21.38;;;16.35;;
32393;SDS011;18853;45.426;9.206;2023-11-19T06:30:00;22.08;;;16.42;;
32393;SDS011;18853;45.426;9.206;2023-11-19T06:32:26;27.17;;;17.35;;
32393;SDS011;18853;45.426;9.206;2023-11-19T06:34:53;25.25;;;16.70;;
32393;SDS011;18853;45.426;9.206;2023-11-19T06:37:18;24.60;;;17.02;;
32393;SDS011;18853;45.426;9.206;2023-11-19T06:39:44;24.92;;;18.00;;
32393;SDS011;18853;45.426;9.206;2023-11-19T06:42:10;24.60;;;16.00;;
32393;SDS011;18853;45.426;9.206;2023-11-19T06:44:36;23.30;;;17.42;;
32393;SDS011;18853;45.426;9.206;2023-11-19T06:47:01;26.08;;;17.75;;
32393;SDS011;18853;45.426;9.206;2023-11-19T06:49:27;24.13;;;17.70;;
32393;SDS011;18853;45.426;9.206;2023-11-19T06:51:52;25.70;;;17.58;;
32393;SDS011;18853;45.426;9.206;2023-11-19T06:54:18;25.08;;;16.27;;
32393;SDS011;18853;45.426;9.206;2023-11-19T06:56:44;23.33;;;17.35;;
32393;SDS011;18853;45.426;9.206;2023-11-19T06:59:17;21.02;;;15.77;;
32393;SDS011;18853;45.426;9.206;2023-11-19T07:01:42;22.67;;;16.70;;
32393;SDS011;18853;45.426;9.206;2023-11-19T07:04:10;21.13;;;15.55;;
32393;SDS011;18853;45.426;9.206;2023-11-19T07:06:37;24.27;;;16.80;;
32393;SDS011;18853;45.426;9.206;2023-11-19T07:09:04;23.92;;;17.88;;
32393;SDS011;18853;45.426;9.206;2023-11-19T07:11:37;25.73;;;18.25;;
32393;SDS011;18853;45.426;9.206;2023-11-19T07:14:04;23.30;;;17.77;;
32393;SDS011;18853;45.426;9.206;2023-11-19T07:16:31;21.70;;;17.58;;
32393;SDS011;18853;45.426;9.206;2023-11-19T07:19:02;25.00;;;18.10;;
32393;SDS011;18853;45.426;9.206;2023-11-19T07:21:28;27.05;;;18.02;;
32393;SDS011;18853;45.426;9.206;2023-11-19T07:23:54;23.33;;;17.90;;
32393;SDS011;18853;45.426;9.206;2023-11-19T07:26:20;54.70;;;37.20;;
32393;SDS011;18853;45.426;9.206;2023-11-19T07:28:46;28.98;;;23.02;;
32393;SDS011;18853;45.426;9.206;2023-11-19T07:31:12;27.15;;;20.90;;
32393;SDS011;18853;45.426;9.206;2023-11-19T07:33:39;25.30;;;17.98;;
32393;SDS011;18853;45.426;9.206;2023-11-19T07:36:07;23.42;;;16.90;;
32393;SDS011;18853;45.426;9.206;2023-11-19T07:38:33;23.85;;;17.15;;
32393;SDS011;18853;45.426;9.206;2023-11-19T07:40:59;27.40;;;17.02;;
32393;SDS011;18853;45.426;9.206;2023-11-19T07:43:25;24.30;;;16.75;;
32393;SDS011;18853;45.426;9.206;2023-11-19T07:45:51;21.52;;;16.20;;
32393;SDS011;18853;45.426;9.206;2023-11-19T07:48:16;22.85;;;16.45;;
32393;SDS011;18853;45.426;9.206;2023-11-19T07:50:47;26.73;;;17.25;;
32393;SDS011;18853;45.426;9.206;2023-11-19T07:53:15;22.35;;;16.98;;
32393;SDS011;18853;45.426;9.206;2023-11-19T07:55:44;23.63;;;17.48;;
32393;SDS011;18853;45.426;9.206;2023-11-19T07:58:10;25.08;;;18.25;;
32393;SDS011;18853;45.426;9.206;2023-11-19T08:00:36;23.92;;;17.55;;
32393;SDS011;18853;45.426;9.206;2023-11-19T08:03:02;29.02;;;18.98;;
32393;SDS011;18853;45.426;9.206;2023-11-19T08:05:29;26.10;;;17.80;;
32393;SDS011;18853;45.426;9.206;2023-11-19T08:07:54;24.85;;;18.83;;
32393;SDS011;18853;45.426;9.206;2023-11-19T08:10:20;26.52;;;19.33;;
32393;SDS011;18853;45.426;9.206;2023-11-19T08:12:46;24.33;;;18.88;;
32393;SDS011;18853;45.426;9.206;2023-11-19T08:15:12;25.15;;;18.85;;
32393;SDS011;18853;45.426;9.206;2023-11-19T08:17:37;22.15;;;18.00;;
32393;SDS011;18853;45.426;9.206;2023-11-19T08:20:03;26.13;;;19.73;;
32393;SDS011;18853;45.426;9.206;2023-11-19T08:22:30;26.55;;;18.48;;
32393;SDS011;18853;45.426;9.206;2023-11-19T08:24:56;27.48;;;19.20;;
32393;SDS011;18853;45.426;9.206;2023-11-19T08:27:21;25.73;;;18.67;;
32393;SDS011;18853;45.426;9.206;2023-11-19T08:29:54;24.60;;;19.50;;
32393;SDS011;18853;45.426;9.206;2023-11-19T08:32:26;23.83;;;18.88;;
32393;SDS011;18853;45.426;9.206;2023-11-19T08:35:11;25.13;;;18.98;;
32393;SDS011;18853;45.426;9.206;2023-11-19T08:37:37;25.50;;;19.38;;
32393;SDS011;18853;45.426;9.206;2023-11-19T08:40:03;26.50;;;19.20;;
32393;SDS011;18853;45.426;9.206;2023-11-19T08:42:30;25.77;;;20.27;;
32393;SDS011;18853;45.426;9.206;2023-11-19T08:44:56;25.33;;;19.85;;
32393;SDS011;18853;45.426;9.206;2023-11-19T08:47:21;24.98;;;19.52;;
32393;SDS011;18853;45.426;9.206;2023-11-19T08:49:51;25.63;;;19.40;;
32393;SDS011;18853;45.426;9.206;2023-11-19T08:52:18;23.45;;;19.30;;
32393;SDS011;18853;45.426;9.206;2023-11-19T08:54:43;23.80;;;19.25;;
32393;SDS011;18853;45.426;9.206;2023-11-19T08:57:09;24.83;;;19.10;;
32393;SDS011;18853;45.426;9.206;2023-11-19T08:59:35;27.00;;;20.52;;
32393;SDS011;18853;45.426;9.206;2023-11-19T09:02:03;23.17;;;20.02;;
32393;SDS011;18853;45.426;9.206;2023-11-19T09:04:29;27.50;;;20.17;;
32393;SDS011;18853;45.426;9.206;2023-11-19T09:06:54;27.15;;;20.52;;
32393;SDS011;18853;45.426;9.206;2023-11-19T09:09:22;25.33;;;20.17;;
32393;SDS011;18853;45.426;9.206;2023-11-19T09:11:47;27.50;;;20.48;;
32393;SDS011;18853;45.426;9.206;2023-11-19T09:14:13;26.90;;;20.35;;
32393;SDS011;18853;45.426;9.206;2023-11-19T09:16:38;25.40;;;20.67;;
32393;SDS011;18853;45.426;9.206;2023-11-19T09:19:04;26.88;;;20.88;;
32393;SDS011;18853;45.426;9.206;2023-11-19T09:21:30;27.30;;;20.98;;
32393;SDS011;18853;45.426;9.206;2023-11-19T09:23:55;27.45;;;22.23;;
32393;SDS011;18853;45.426;9.206;2023-11-19T09:26:22;24.63;;;20.83;;
32393;SDS011;18853;45.426;9.206;2023-11-19T09:28:47;24.90;;;20.05;;
32393;SDS011;18853;45.426;9.206;2023-11-19T09:31:16;28.08;;;21.23;;
32393;SDS011;18853;45.426;9.206;2023-11-19T09:33:42;25.00;;;19.83;;
32393;SDS011;18853;45.426;9.206;2023-11-19T09:36:09;28.90;;;20.90;;
32393;SDS011;18853;45.426;9.206;2023-11-19T09:38:38;26.27;;;21.25;;
32393;SDS011;18853;45.426;9.206;2023-11-19T09:41:10;26.55;;;20.70;;
32393;SDS011;18853;45.426;9.206;2023-11-19T09:43:39;24.17;;;20.55;;
32393;SDS011;18853;45.426;9.206;2023-11-19T09:46:06;26.73;;;21.02;;
32393;SDS011;18853;45.426;9.206;2023-11-19T09:48:36;29.23;;;21.27;;
32393;SDS011;18853;45.426;9.206;2023-11-19T09:51:03;25.27;;;21.13;;
32393;SDS011;18853;45.426;9.206;2023-11-19T09:53:30;27.67;;;21.80;;
32393;SDS011;18853;45.426;9.206;2023-11-19T09:55:56;26.77;;;21.52;;
32393;SDS011;18853;45.426;9.206;2023-11-19T09:58:24;25.60;;;20.73;;
32393;SDS011;18853;45.426;9.206;2023-11-19T10:00:50;24.83;;;20.73;;
32393;SDS011;18853;45.426;9.206;2023-11-19T10:03:17;26.33;;;21.05;;
32393;SDS011;18853;45.426;9.206;2023-11-19T10:05:42;25.90;;;19.77;;
32393;SDS011;18853;45.426;9.206;2023-11-19T10:08:08;25.42;;;21.20;;
32393;SDS011;18853;45.426;9.206;2023-11-19T10:10:35;23.73;;;20.50;;
32393;SDS011;18853;45.426;9.206;2023-11-19T10:13:03;27.92;;;21.63;;
32393;SDS011;18853;45.426;9.206;2023-11-19T10:15:35;26.67;;;21.67;;
32393;SDS011;18853;45.426;9.206;2023-11-19T10:18:02;25.42;;;20.73;;
32393;SDS011;18853;45.426;9.206;2023-11-19T10:20:34;24.48;;;20.73;;
32393;SDS011;18853;45.426;9.206;2023-11-19T10:23:05;25.05;;;20.83;;
32393;SDS011;18853;45.426;9.206;2023-11-19T10:25:31;27.67;;;20.92;;
32393;SDS011;18853;45.426;9.206;2023-11-19T10:27:58;25.70;;;20.95;;
32393;SDS011;18853;45.426;9.206;2023-11-19T10:30:26;28.30;;;20.95;;
32393;SDS011;18853;45.426;9.206;2023-11-19T10:33:13;27.27;;;22.08;;
32393;SDS011;18853;45.426;9.206;2023-11-19T10:35:54;26.67;;;21.63;;
32393;SDS011;18853;45.426;9.206;2023-11-19T10:38:27;28.30;;;22.52;;
32393;SDS011;18853;45.426;9.206;2023-11-19T10:40:53;24.52;;;21.00;;
32393;SDS011;18853;45.426;9.206;2023-11-19T10:43:19;28.48;;;21.33;;
32393;SDS011;18853;45.426;9.206;2023-11-19T10:45:47;26.67;;;22.08;;
32393;SDS011;18853;45.426;9.206;2023-11-19T10:48:13;26.17;;;21.73;;
32393;SDS011;18853;45.426;9.206;2023-11-19T10:50:40;25.98;;;21.75;;
32393;SDS011;18853;45.426;9.206;2023-11-19T10:53:07;27.20;;;21.48;;
32393;SDS011;18853;45.426;9.206;2023-11-19T10:55:35;27.10;;;22.00;;
32393;SDS011;18853;45.426;9.206;2023-11-19T10:58:04;25.15;;;20.92;;
32393;SDS011;18853;45.426;9.206;2023-11-19T11:03:19;27.63;;;20.75;;
32393;SDS011;18853;45.426;9.206;2023-11-19T11:05:46;23.83;;;20.48;;
32393;SDS011;18853;45.426;9.206;2023-11-19T11:08:13;26.83;;;21.33;;
32393;SDS011;18853;45.426;9.206;2023-11-19T11:10:41;27.63;;;20.80;;
32393;SDS011;18853;45.426;9.206;2023-11-19T11:13:13;23.55;;;20.38;;
32393;SDS011;18853;45.426;9.206;2023-11-19T11:15:39;25.58;;;20.20;;
32393;SDS011;18853;45.426;9.206;2023-11-19T11:18:08;26.00;;;21.02;;
32393;SDS011;18853;45.426;9.206;2023-11-19T11:20:34;24.88;;;21.05;;
32393;SDS011;18853;45.426;9.206;2023-11-19T11:26:06;24.02;;;20.40;;
32393;SDS011;18853;45.426;9.206;2023-11-19T11:39:43;25.38;;;19.98;;
32393;SDS011;18853;45.426;9.206;2023-11-19T11:44:57;26.23;;;20.42;;
32393;SDS011;18853;45.426;9.206;2023-11-19T11:53:13;27.98;;;20.80;;
32393;SDS011;18853;45.426;9.206;2023-11-19T11:55:37;26.75;;;21.65;;
32393;SDS011;18853;45.426;9.206;2023-11-19T11:58:17;25.30;;;21.80;;
32393;SDS011;18853;45.426;9.206;2023-11-19T12:00:43;27.35;;;21.73;;
32393;SDS011;18853;45.426;9.206;2023-11-19T12:03:11;26.55;;;21.17;;
32393;SDS011;18853;45.426;9.206;2023-11-19T12:05:45;26.27;;;21.73;;
32393;SDS011;18853;45.426;9.206;2023-11-19T12:08:12;24.98;;;20.55;;
32393;SDS011;18853;45.426;9.206;2023-11-19T12:10:47;29.35;;;21.75;;
32393;SDS011;18853;45.426;9.206;2023-11-19T12:13:14;23.95;;;21.42;;
32393;SDS011;18853;45.426;9.206;2023-11-19T12:18:28;24.35;;;19.77;;
32393;SDS011;18853;45.426;9.206;2023-11-19T12:21:01;23.90;;;19.00;;
32393;SDS011;18853;45.426;9.206;2023-11-19T12:23:30;26.40;;;20.23;;
32393;SDS011;18853;45.426;9.206;2023-11-19T12:25:56;23.35;;;19.90;;
32393;SDS011;18853;45.426;9.206;2023-11-19T12:28:23;27.80;;;20.65;;
32393;SDS011;18853;45.426;9.206;2023-11-19T12:30:51;21.98;;;18.80;;
32393;SDS011;18853;45.426;9.206;2023-11-19T12:33:18;24.65;;;19.52;;
32393;SDS011;18853;45.426;9.206;2023-11-19T12:35:45;23.33;;;19.77;;
32393;SDS011;18853;45.426;9.206;2023-11-19T12:38:19;22.90;;;19.30;;
32393;SDS011;18853;45.426;9.206;2023-11-19T12:41:08;22.55;;;19.00;;
32393;SDS011;18853;45.426;9.206;2023-11-19T12:43:36;23.73;;;19.83;;
32393;SDS011;18853;45.426;9.206;2023-11-19T12:46:24;22.85;;;19.95;;
32393;SDS011;18853;45.426;9.206;2023-11-19T12:51:15;21.15;;;18.77;;
32393;SDS011;18853;45.426;9.206;2023-11-19T12:53:48;22.77;;;18.10;;
32393;SDS011;18853;45.426;9.206;2023-11-19T12:56:16;23.42;;;19.30;;
32393;SDS011;18853;45.426;9.206;2023-11-19T12:58:41;20.73;;;18.08;;
32393;SDS011;18853;45.426;9.206;2023-11-19T13:01:08;24.00;;;19.75;;
32393;SDS011;18853;45.426;9.206;2023-11-19T13:03:36;21.10;;;18.25;;
32393;SDS011;18853;45.426;9.206;2023-11-19T13:06:10;21.60;;;17.77;;
32393;SDS011;18853;45.426;9.206;2023-11-19T13:08:43;30.55;;;19.85;;
32393;SDS011;18853;45.426;9.206;2023-11-19T13:11:10;21.38;;;18.48;;
32393;SDS011;18853;45.426;9.206;2023-11-19T13:16:25;24.00;;;19.52;;
32393;SDS011;18853;45.426;9.206;2023-11-19T13:18:52;91.65;;;65.85;;
32393;SDS011;18853;45.426;9.206;2023-11-19T13:21:18;126.07;;;95.57;;
32393;SDS011;18853;45.426;9.206;2023-11-19T13:23:44;48.97;;;39.33;;
32393;SDS011;18853;45.426;9.206;2023-11-19T13:26:10;24.23;;;20.58;;
32393;SDS011;18853;45.426;9.206;2023-11-19T13:28:37;23.05;;;20.25;;
32393;SDS011;18853;45.426;9.206;2023-11-19T13:31:03;23.40;;;19.27;;
32393;SDS011;18853;45.426;9.206;2023-11-19T13:33:29;23.95;;;18.67;;
32393;SDS011;18853;45.426;9.206;2023-11-19T13:35:55;20.25;;;18.10;;
32393;SDS011;18853;45.426;9.206;2023-11-19T13:38:22;22.77;;;19.10;;
32393;SDS011;18853;45.426;9.206;2023-11-19T13:40:49;21.52;;;19.10;;
32393;SDS011;18853;45.426;9.206;2023-11-19T13:43:14;22.98;;;19.05;;
32393;SDS011;18853;45.426;9.206;2023-11-19T13:45:40;22.73;;;18.13;;
32393;SDS011;18853;45.426;9.206;2023-11-19T13:48:06;23.63;;;19.08;;
32393;SDS011;18853;45.426;9.206;2023-11-19T13:50:31;21.42;;;19.13;;
32393;SDS011;18853;45.426;9.206;2023-11-19T13:52:59;21.13;;;18.52;;
32393;SDS011;18853;45.426;9.206;2023-11-19T13:55:25;20.65;;;18.25;;
32393;SDS011;18853;45.426;9.206;2023-11-19T13:57:51;20.90;;;18.30;;
32393;SDS011;18853;45.426;9.206;2023-11-19T14:00:16;20.45;;;18.05;;
32393;SDS011;18853;45.426;9.206;2023-11-19T14:02:43;20.95;;;18.67;;
32393;SDS011;18853;45.426;9.206;2023-11-19T14:05:10;23.73;;;18.67;;
32393;SDS011;18853;45.426;9.206;2023-11-19T14:07:36;22.20;;;18.90;;
32393;SDS011;18853;45.426;9.206;2023-11-19T14:10:03;22.33;;;19.40;;
32393;SDS011;18853;45.426;9.206;2023-11-19T14:12:30;21.45;;;19.10;;
32393;SDS011;18853;45.426;9.206;2023-11-19T14:14:57;21.90;;;19.25;;
32393;SDS011;18853;45.426;9.206;2023-11-19T14:17:23;22.00;;;19.60;;
32393;SDS011;18853;45.426;9.206;2023-11-19T14:19:50;21.73;;;19.17;;
32393;SDS011;18853;45.426;9.206;2023-11-19T14:22:15;23.55;;;19.23;;
32393;SDS011;18853;45.426;9.206;2023-11-19T14:24:41;21.42;;;18.63;;
32393;SDS011;18853;45.426;9.206;2023-11-19T14:27:08;22.50;;;19.13;;
32393;SDS011;18853;45.426;9.206;2023-11-19T14:29:34;22.23;;;19.88;;
32393;SDS011;18853;45.426;9.206;2023-11-19T14:32:00;20.40;;;18.23;;
32393;SDS011;18853;45.426;9.206;2023-11-19T14:34:27;23.13;;;19.10;;
32393;SDS011;18853;45.426;9.206;2023-11-19T14:36:52;19.88;;;17.67;;
32393;SDS011;18853;45.426;9.206;2023-11-19T14:39:19;21.90;;;18.48;;
32393;SDS011;18853;45.426;9.206;2023-11-19T14:41:45;20.40;;;18.25;;
32393;SDS011;18853;45.426;9.206;2023-11-19T14:44:11;21.52;;;18.67;;
32393;SDS011;18853;45.426;9.206;2023-11-19T14:46:36;22.15;;;19.50;;
32393;SDS011;18853;45.426;9.206;2023-11-19T14:49:03;22.40;;;19.77;;
32393;SDS011;18853;45.426;9.206;2023-11-19T14:51:35;21.52;;;19.23;;
32393;SDS011;18853;45.426;9.206;2023-11-19T14:54:02;22.23;;;18.58;;
32393;SDS011;18853;45.426;9.206;2023-11-19T14:56:28;22.45;;;19.88;;